createdAt,value
2022-11-17T06:41:21.543Z,19.66
2022-11-17T06:41:36.568Z,19.80
2022-11-17T06:41:51.487Z,19.93
2022-11-17T06:42:06.485Z,20.10
2022-11-17T06:42:21.472Z,20.24
2022-11-17T06:42:36.465Z,20.35
2022-11-17T06:42:51.443Z,20.52
2022-11-17T06:43:06.465Z,20.59
2022-11-17T06:43:21.483Z,20.72
2022-11-17T06:43:36.747Z,20.86
2022-11-17T06:43:51.487Z,20.97
2022-11-17T06:44:06.497Z,21.10
2022-11-17T06:46:48.968Z,21.96
2022-11-17T06:47:01.035Z,22.05
2022-11-17T06:47:16.045Z,22.12
2022-11-17T06:47:31.031Z,22.20
2022-11-17T06:47:46.041Z,22.23
2022-11-17T06:48:01.031Z,22.31
2022-11-17T06:48:15.996Z,22.39
2022-11-17T06:48:31.031Z,22.46
2022-11-17T06:48:46.011Z,22.51
2022-11-17T06:49:01.031Z,22.55
2022-11-17T06:49:16.005Z,22.62
2022-11-17T06:49:31.006Z,22.69
2022-11-17T06:49:46.035Z,22.72
2022-11-17T06:50:01.007Z,22.79
2022-11-17T06:50:16.112Z,22.85
2022-11-17T06:50:30.996Z,22.91
2022-11-17T06:50:45.977Z,22.98
2022-11-17T06:51:01.033Z,23.03
2022-11-17T06:51:16.031Z,23.06
2022-11-17T06:51:31.123Z,23.12
2022-11-17T06:51:45.994Z,23.14
2022-11-17T06:52:01.036Z,23.16
2022-11-17T06:52:15.991Z,23.23
2022-11-17T06:52:31.096Z,23.30
2022-11-17T06:52:46.033Z,23.33
2022-11-17T06:53:01.071Z,23.36
2022-11-17T06:53:16.043Z,23.39
2022-11-17T06:53:31.033Z,23.44
2022-11-17T06:53:45.998Z,23.46
2022-11-17T06:54:01.038Z,23.48
2022-11-17T06:54:16.048Z,23.51
2022-11-17T06:54:31.050Z,23.53
2022-11-17T06:54:46.032Z,23.57
2022-11-17T06:55:01.055Z,23.60
2022-11-17T06:55:16.009Z,23.61
2022-11-17T06:55:31.010Z,23.62
2022-11-17T06:55:46.003Z,23.65
2022-11-17T06:56:01.023Z,23.68
2022-11-17T06:56:15.999Z,23.69
2022-11-17T06:56:31.028Z,23.64
2022-11-17T06:56:46.027Z,23.69
2022-11-17T06:57:00.988Z,23.72
2022-11-17T06:57:16.033Z,23.75
2022-11-17T06:57:30.966Z,23.76
2022-11-17T06:57:51.847Z,23.76
2022-11-17T06:58:02.001Z,23.78
2022-11-17T06:58:15.972Z,23.81
2022-11-17T06:58:30.958Z,23.81
2022-11-17T06:58:46.012Z,23.79
2022-11-17T06:59:01.060Z,23.79
2022-11-17T06:59:16.052Z,23.76
2022-11-17T06:59:31.000Z,23.76
2022-11-17T06:59:46.011Z,23.75
2022-11-17T07:00:00.938Z,23.79
2022-11-17T07:00:15.992Z,23.78
2022-11-17T07:00:31.173Z,23.79
2022-11-17T07:00:46.077Z,23.79
2022-11-17T07:01:00.992Z,23.79
2022-11-17T07:01:16.052Z,23.78
2022-11-17T07:01:30.980Z,23.81
2022-11-17T07:01:45.991Z,23.81
2022-11-17T07:02:00.947Z,23.84
2022-11-17T07:02:15.970Z,23.82
2022-11-17T07:02:30.970Z,23.84
2022-11-17T07:02:45.958Z,23.84
2022-11-17T07:03:00.985Z,23.85
2022-11-17T07:03:15.947Z,23.86
2022-11-17T07:03:30.970Z,23.86
2022-11-17T07:03:45.968Z,23.85
2022-11-17T07:04:00.949Z,23.85
2022-11-17T07:04:15.934Z,23.88
2022-11-17T07:04:30.940Z,23.91
2022-11-17T07:04:45.978Z,23.91
2022-11-17T07:05:00.948Z,23.92
2022-11-17T07:05:15.964Z,23.92
2022-11-17T07:05:30.955Z,23.93
2022-11-17T07:05:45.958Z,23.95
2022-11-17T07:06:00.923Z,23.95
2022-11-17T07:06:15.957Z,23.96
2022-11-17T07:06:30.954Z,23.98
2022-11-17T07:06:45.963Z,23.99
2022-11-17T07:07:00.989Z,23.99
2022-11-17T07:07:15.961Z,24.01
2022-11-17T07:07:30.989Z,24.03
2022-11-17T07:07:45.944Z,24.02
2022-11-17T07:08:00.925Z,24.05
2022-11-17T07:08:15.944Z,24.08
2022-11-17T07:08:30.953Z,24.05
2022-11-17T07:08:45.945Z,24.08
2022-11-17T07:09:00.910Z,24.11
2022-11-17T07:09:15.942Z,24.11
2022-11-17T07:09:30.920Z,24.13
2022-11-17T07:09:45.948Z,24.15
2022-11-17T07:10:00.935Z,24.15
2022-11-17T07:10:15.917Z,24.17
2022-11-17T07:10:30.916Z,24.19
2022-11-17T07:10:49.230Z,24.22
2022-11-17T07:11:00.901Z,24.24
2022-11-17T07:11:15.925Z,24.24
2022-11-17T07:11:30.933Z,24.24
2022-11-17T07:11:45.941Z,24.27
2022-11-17T07:12:00.902Z,24.30
2022-11-17T07:12:15.915Z,24.31
2022-11-17T07:12:30.899Z,24.33
2022-11-17T07:12:45.889Z,24.36
2022-11-17T07:13:00.922Z,24.37
2022-11-17T07:13:15.936Z,24.37
2022-11-17T07:13:30.888Z,24.40
2022-11-17T07:13:45.915Z,24.40
2022-11-17T07:14:00.903Z,24.43
2022-11-17T07:14:15.893Z,24.43
2022-11-17T07:14:30.928Z,24.46
2022-11-17T07:14:45.917Z,24.46
2022-11-17T07:15:00.887Z,24.50
2022-11-17T07:15:15.929Z,24.48
2022-11-17T07:15:30.858Z,24.50
2022-11-17T07:15:45.856Z,24.53
2022-11-17T07:16:00.907Z,24.53
2022-11-17T07:16:21.701Z,24.56
2022-11-17T07:16:31.868Z,24.54
2022-11-17T07:16:45.877Z,24.57
2022-11-17T07:17:00.898Z,24.60
2022-11-17T07:17:15.900Z,24.61
2022-11-17T07:17:30.877Z,24.63
2022-11-17T07:17:45.833Z,24.61
2022-11-17T07:18:00.884Z,24.64
2022-11-17T07:18:15.883Z,24.63
2022-11-17T07:18:30.867Z,24.67
2022-11-17T07:18:45.870Z,24.68
2022-11-17T07:19:00.883Z,24.70
2022-11-17T07:19:15.864Z,24.63
2022-11-17T07:19:30.839Z,24.64
2022-11-17T07:19:45.884Z,24.68
2022-11-17T07:20:00.858Z,24.71
2022-11-17T07:20:15.875Z,24.72
2022-11-17T07:20:30.883Z,24.75
2022-11-17T07:20:45.871Z,24.74
2022-11-17T07:21:00.839Z,24.77
2022-11-17T07:21:15.868Z,24.77
2022-11-17T07:21:30.812Z,24.77
2022-11-17T07:21:45.834Z,24.78
2022-11-17T07:22:00.851Z,24.81
2022-11-17T07:22:15.854Z,24.82
2022-11-17T07:22:30.922Z,24.84
2022-11-17T07:22:45.867Z,24.85
2022-11-17T07:23:00.853Z,24.86
2022-11-17T07:23:15.828Z,24.88
2022-11-17T07:23:30.836Z,24.89
2022-11-17T07:23:45.935Z,24.91
2022-11-17T07:24:00.823Z,24.91
2022-11-17T07:24:15.881Z,24.93
2022-11-17T07:24:30.833Z,24.95
2022-11-17T07:24:45.851Z,24.95
2022-11-17T07:25:00.828Z,24.93
2022-11-17T07:25:21.070Z,24.99
2022-11-17T07:25:31.880Z,24.99
2022-11-17T07:25:45.824Z,24.99
2022-11-17T07:26:00.819Z,25.01
2022-11-17T07:26:15.807Z,25.03
2022-11-17T07:26:30.829Z,25.03
2022-11-17T07:26:45.838Z,25.05
2022-11-17T07:27:00.849Z,25.05
2022-11-17T07:27:15.840Z,25.08
2022-11-17T07:27:30.813Z,25.06
2022-11-17T07:27:45.844Z,25.08
2022-11-17T07:28:00.879Z,25.08
2022-11-17T07:28:15.823Z,25.10
2022-11-17T07:28:30.812Z,25.10
2022-11-17T07:28:45.831Z,25.13
2022-11-17T07:29:00.783Z,25.13
2022-11-17T07:29:15.761Z,25.16
2022-11-17T07:29:30.798Z,25.15
2022-11-17T07:29:45.835Z,25.16
2022-11-17T07:30:00.808Z,25.18
2022-11-17T07:30:15.818Z,25.19
2022-11-17T07:30:30.798Z,25.20
2022-11-17T07:30:45.815Z,25.20
2022-11-17T07:31:00.811Z,25.19
2022-11-17T07:31:15.814Z,25.20
2022-11-17T07:31:30.801Z,25.19
2022-11-17T07:31:45.831Z,25.23
2022-11-17T07:32:00.772Z,25.06
2022-11-17T07:32:15.798Z,24.85
2022-11-17T07:32:30.807Z,24.98
2022-11-17T07:32:48.440Z,24.95
2022-11-17T07:33:01.798Z,24.92
2022-11-17T07:33:15.788Z,24.96
2022-11-17T07:33:30.812Z,24.96
2022-11-17T07:33:45.829Z,24.96
2022-11-17T07:34:00.808Z,24.88
2022-11-17T07:34:15.799Z,24.86
2022-11-17T07:34:30.789Z,24.84
2022-11-17T07:34:45.773Z,24.84
2022-11-17T07:35:00.757Z,24.81
2022-11-17T07:35:15.773Z,24.81
2022-11-17T07:35:30.768Z,24.77
2022-11-17T07:35:45.794Z,24.61
2022-11-17T07:36:00.758Z,24.71
2022-11-17T07:36:15.788Z,24.92
2022-11-17T07:36:30.733Z,24.89
2022-11-17T07:36:45.758Z,24.75
2022-11-17T07:37:00.743Z,24.46
2022-11-17T07:37:15.793Z,24.57
2022-11-17T07:37:30.726Z,24.60
2022-11-17T07:37:45.774Z,24.50
2022-11-17T07:38:00.769Z,24.54
2022-11-17T07:38:15.748Z,24.61
2022-11-17T07:38:30.767Z,24.58
2022-11-17T07:38:45.753Z,24.57
2022-11-17T07:39:00.713Z,24.57
2022-11-17T07:39:21.024Z,24.56
2022-11-17T07:39:31.750Z,24.64
2022-11-17T07:39:45.747Z,24.71
2022-11-17T07:40:00.727Z,24.71
2022-11-17T07:40:15.787Z,24.77
2022-11-17T07:40:30.708Z,24.79
2022-11-17T07:40:45.768Z,24.79
2022-11-17T07:41:00.738Z,24.84
2022-11-17T07:41:15.725Z,24.85
2022-11-17T07:41:30.727Z,24.88
2022-11-17T07:41:45.748Z,24.89
2022-11-17T07:42:00.747Z,24.91
2022-11-17T07:42:15.782Z,24.91
2022-11-17T07:42:30.711Z,24.93
2022-11-17T07:42:45.703Z,24.92
2022-11-17T07:43:00.702Z,24.89
2022-11-17T07:43:15.753Z,24.92
2022-11-17T07:43:30.708Z,24.93
2022-11-17T07:43:45.712Z,24.96
2022-11-17T07:44:00.693Z,25.01
2022-11-17T07:44:15.701Z,25.02
2022-11-17T07:44:30.751Z,25.02
2022-11-17T07:44:45.730Z,25.01
2022-11-17T07:45:00.732Z,25.03
2022-11-17T07:45:15.726Z,25.02
2022-11-17T07:45:32.239Z,25.03
2022-11-17T07:45:45.712Z,25.05
2022-11-17T07:46:00.719Z,25.02
2022-11-17T07:46:15.692Z,25.01
2022-11-17T07:46:30.720Z,25.05
2022-11-17T07:46:45.698Z,25.05
2022-11-17T07:47:00.695Z,25.05
2022-11-17T07:47:15.708Z,25.06
2022-11-17T07:47:30.678Z,25.06
2022-11-17T07:47:45.707Z,25.08
2022-11-17T07:48:00.658Z,25.08
2022-11-17T07:48:15.723Z,25.08
2022-11-17T07:48:30.642Z,25.03
2022-11-17T07:48:45.731Z,25.06
2022-11-17T07:49:00.712Z,25.09
2022-11-17T07:49:15.719Z,25.08
2022-11-17T07:49:30.682Z,25.09
2022-11-17T07:49:45.697Z,25.09
2022-11-17T07:50:00.664Z,25.02
2022-11-17T07:50:15.694Z,25.03
2022-11-17T07:50:30.671Z,25.03
2022-11-17T07:50:45.712Z,25.05
2022-11-17T07:51:00.700Z,25.05
2022-11-17T07:51:15.657Z,25.05
2022-11-17T07:51:30.738Z,25.05
2022-11-17T07:51:45.642Z,25.05
2022-11-17T07:52:00.669Z,25.06
2022-11-17T07:52:15.670Z,25.06
2022-11-17T07:52:30.673Z,25.01
2022-11-17T07:52:45.650Z,24.99
2022-11-17T07:53:00.754Z,24.95
2022-11-17T07:53:15.693Z,24.98
2022-11-17T07:53:30.658Z,24.96
2022-11-17T07:53:45.720Z,24.96
2022-11-17T07:54:00.688Z,24.96
2022-11-17T07:54:15.693Z,24.95
2022-11-17T07:54:30.664Z,24.98
2022-11-17T07:54:45.683Z,25.02
2022-11-17T07:55:00.665Z,25.02
2022-11-17T07:55:15.645Z,25.03
2022-11-17T07:55:30.669Z,25.05
2022-11-17T07:55:45.683Z,25.05
2022-11-17T07:56:00.713Z,25.06
2022-11-17T07:56:15.690Z,25.08
2022-11-17T07:56:30.659Z,25.10
2022-11-17T07:56:45.645Z,25.12
2022-11-17T07:57:00.634Z,25.10
2022-11-17T07:57:15.638Z,25.12
2022-11-17T07:57:30.603Z,25.13
2022-11-17T07:57:45.648Z,25.16
2022-11-17T07:58:00.636Z,25.16
2022-11-17T07:58:15.627Z,25.18
2022-11-17T07:58:30.643Z,25.18
2022-11-17T07:58:45.648Z,25.19
2022-11-17T07:59:00.655Z,25.23
2022-11-17T07:59:21.020Z,25.22
2022-11-17T07:59:31.638Z,25.23
2022-11-17T07:59:45.626Z,25.22
2022-11-17T08:00:00.623Z,25.26
2022-11-17T08:00:15.647Z,25.27
2022-11-17T08:00:30.712Z,25.27
2022-11-17T08:00:45.655Z,25.30
2022-11-17T08:01:00.719Z,25.30
2022-11-17T08:01:15.803Z,25.34
2022-11-17T08:01:30.694Z,25.32
2022-11-17T08:01:45.572Z,25.34
2022-11-17T08:02:00.615Z,25.33
2022-11-17T08:02:15.617Z,25.37
2022-11-17T08:02:30.607Z,25.34
2022-11-17T08:02:45.602Z,25.39
2022-11-17T08:03:00.637Z,25.39
2022-11-17T08:03:15.679Z,25.41
2022-11-17T08:03:30.728Z,25.40
2022-11-17T08:03:45.813Z,25.43
2022-11-17T08:04:00.771Z,25.43
2022-11-17T08:04:15.924Z,25.44
2022-11-17T08:04:30.693Z,25.44
2022-11-17T08:04:46.220Z,25.46
2022-11-17T08:05:00.592Z,25.48
2022-11-17T08:05:15.598Z,25.47
2022-11-17T08:05:34.797Z,25.48
2022-11-17T08:05:45.652Z,25.51
2022-11-17T08:06:00.743Z,25.51
2022-11-17T08:06:15.574Z,25.53
2022-11-17T08:06:30.602Z,25.53
2022-11-17T08:06:45.672Z,25.56
2022-11-17T08:07:00.721Z,25.54
2022-11-17T08:07:15.795Z,25.53
2022-11-17T08:07:30.888Z,25.56
2022-11-17T08:07:45.740Z,25.58
2022-11-17T08:08:00.608Z,25.57
2022-11-17T08:08:15.640Z,25.58
2022-11-17T08:08:31.095Z,25.57
2022-11-17T08:08:45.607Z,25.58
2022-11-17T08:09:02.595Z,25.60
2022-11-17T08:09:15.603Z,25.61
2022-11-17T08:09:30.599Z,25.63
2022-11-17T08:09:46.537Z,25.63
2022-11-17T08:10:00.571Z,25.65
2022-11-17T08:10:15.587Z,25.63
2022-11-17T08:10:30.532Z,25.65
2022-11-17T08:10:45.577Z,25.64
2022-11-17T08:11:00.578Z,25.64
2022-11-17T08:11:16.726Z,25.65
2022-11-17T08:11:30.553Z,25.65
2022-11-17T08:11:45.555Z,25.67
2022-11-17T08:12:00.562Z,25.65
2022-11-17T08:12:15.538Z,25.68
2022-11-17T08:12:30.621Z,25.67
2022-11-17T08:12:45.612Z,25.67
2022-11-17T08:13:00.556Z,25.68
2022-11-17T08:13:15.569Z,25.67
2022-11-17T08:13:30.562Z,25.67
2022-11-17T08:13:45.510Z,25.67
2022-11-17T08:14:00.562Z,25.70
2022-11-17T08:14:15.566Z,25.70
2022-11-17T08:14:31.967Z,25.70
2022-11-17T08:14:45.755Z,25.70
2022-11-17T08:15:00.581Z,25.68
2022-11-17T08:15:15.853Z,25.71
2022-11-17T08:15:31.005Z,25.73
2022-11-17T08:15:45.553Z,25.71
2022-11-17T08:16:04.985Z,25.73
2022-11-17T08:16:16.697Z,25.71
2022-11-17T08:16:31.552Z,25.75
2022-11-17T08:16:45.540Z,25.73
2022-11-17T08:17:00.542Z,25.73
2022-11-17T08:17:15.532Z,25.74
2022-11-17T08:17:30.554Z,25.75
2022-11-17T08:17:45.558Z,25.75
2022-11-17T08:18:00.523Z,25.77
2022-11-17T08:18:15.531Z,25.74
2022-11-17T08:18:30.532Z,25.75
2022-11-17T08:18:51.825Z,25.77
2022-11-17T08:19:01.719Z,25.74
2022-11-17T08:19:16.942Z,25.77
2022-11-17T08:19:30.507Z,25.80
2022-11-17T08:19:45.660Z,25.78
2022-11-17T08:20:00.528Z,25.80
2022-11-17T08:20:15.517Z,25.77
2022-11-17T08:20:30.552Z,25.77
2022-11-17T08:20:45.521Z,25.80
2022-11-17T08:21:00.507Z,25.78
2022-11-17T08:21:15.522Z,25.81
2022-11-17T08:21:30.501Z,25.81
2022-11-17T08:21:45.552Z,25.80
2022-11-17T08:22:00.522Z,25.80
2022-11-17T08:22:15.493Z,25.80
2022-11-17T08:22:30.488Z,25.81
2022-11-17T08:22:45.517Z,25.81
2022-11-17T08:23:00.759Z,25.81
2022-11-17T08:23:22.761Z,25.82
2022-11-17T08:23:30.670Z,25.81
2022-11-17T08:23:45.674Z,25.82
2022-11-17T08:24:00.643Z,25.82
2022-11-17T08:24:15.752Z,25.84
2022-11-17T08:24:32.494Z,25.81
2022-11-17T08:24:46.452Z,25.84
2022-11-17T08:25:00.554Z,25.81
2022-11-17T08:25:15.503Z,25.87
2022-11-17T08:25:30.469Z,25.85
2022-11-17T08:25:45.490Z,25.84
2022-11-17T08:26:00.477Z,25.87
2022-11-17T08:26:15.433Z,25.85
2022-11-17T08:26:30.510Z,25.85
2022-11-17T08:26:45.491Z,25.85
2022-11-17T08:27:00.440Z,25.84
2022-11-17T08:27:15.487Z,25.87
2022-11-17T08:27:30.473Z,25.87
2022-11-17T08:27:45.467Z,25.89
2022-11-17T08:28:00.453Z,25.92
2022-11-17T08:28:15.497Z,25.91
2022-11-17T08:28:30.446Z,25.91
2022-11-17T08:28:45.476Z,25.88
2022-11-17T08:29:00.447Z,25.88
2022-11-17T08:29:15.436Z,25.91
2022-11-17T08:29:30.462Z,25.89
2022-11-17T08:29:45.463Z,25.81
2022-11-17T08:30:00.473Z,25.81
2022-11-17T08:30:15.456Z,25.75
2022-11-17T08:30:30.456Z,25.78
2022-11-17T08:30:45.443Z,25.82
2022-11-17T08:31:00.435Z,25.82
2022-11-17T08:31:15.454Z,25.75
2022-11-17T08:31:30.542Z,25.67
2022-11-17T08:31:45.523Z,25.67
2022-11-17T08:32:00.467Z,25.58
2022-11-17T08:32:15.422Z,25.63
2022-11-17T08:32:30.466Z,25.64
2022-11-17T08:32:45.453Z,25.64
2022-11-17T08:33:00.424Z,25.71
2022-11-17T08:33:15.450Z,25.58
2022-11-17T08:33:30.464Z,25.63
2022-11-17T08:33:45.439Z,25.65
2022-11-17T08:34:00.416Z,25.64
2022-11-17T08:34:15.413Z,25.63
2022-11-17T08:34:30.424Z,25.58
2022-11-17T08:34:45.448Z,25.58
2022-11-17T08:35:00.432Z,25.51
2022-11-17T08:35:15.431Z,25.54
2022-11-17T08:35:34.353Z,25.58
2022-11-17T08:35:46.459Z,25.60
2022-11-17T08:36:00.394Z,25.60
2022-11-17T08:36:15.430Z,25.54
2022-11-17T08:36:30.692Z,25.57
2022-11-17T08:36:45.403Z,25.60
2022-11-17T08:37:00.427Z,25.60
2022-11-17T08:37:15.443Z,25.61
2022-11-17T08:37:30.427Z,25.61
2022-11-17T08:37:45.432Z,25.58
2022-11-17T08:38:00.436Z,25.48
2022-11-17T08:38:15.450Z,25.16
2022-11-17T08:38:30.438Z,25.29
2022-11-17T08:38:45.368Z,25.32
2022-11-17T08:39:00.446Z,25.37
2022-11-17T08:39:15.428Z,25.37
2022-11-17T08:39:30.413Z,25.39
2022-11-17T08:39:45.378Z,25.40
2022-11-17T08:40:00.418Z,25.41
2022-11-17T08:40:15.374Z,25.41
2022-11-17T08:40:30.415Z,25.43
2022-11-17T08:40:45.413Z,25.46
2022-11-17T08:41:00.473Z,25.48
2022-11-17T08:41:15.405Z,25.44
2022-11-17T08:41:30.386Z,25.44
2022-11-17T08:41:45.375Z,25.36
2022-11-17T08:42:00.362Z,25.39
2022-11-17T08:42:15.532Z,25.27
2022-11-17T08:42:30.379Z,25.22
2022-11-17T08:42:45.387Z,25.26
2022-11-17T08:43:01.543Z,25.25
2022-11-17T08:43:15.420Z,25.30
2022-11-17T08:43:30.364Z,25.37
2022-11-17T08:43:45.609Z,25.34
2022-11-17T08:44:00.396Z,25.39
2022-11-17T08:44:15.470Z,25.34
2022-11-17T08:44:30.675Z,25.34
2022-11-17T08:44:45.367Z,25.39
2022-11-17T08:45:00.367Z,25.37
2022-11-17T08:45:15.387Z,25.39
2022-11-17T08:45:30.362Z,25.32
2022-11-17T08:45:45.351Z,25.33
2022-11-17T08:46:00.387Z,25.37
2022-11-17T08:46:15.343Z,25.39
2022-11-17T08:46:30.339Z,25.39
2022-11-17T08:46:45.423Z,25.39
2022-11-17T08:47:00.502Z,25.40
2022-11-17T08:47:15.348Z,25.41
2022-11-17T08:47:30.323Z,25.37
2022-11-17T08:47:45.381Z,25.36
2022-11-17T08:48:00.325Z,25.30
2022-11-17T08:48:15.333Z,25.34
2022-11-17T08:48:30.332Z,25.33
2022-11-17T08:48:45.327Z,25.32
2022-11-17T08:49:00.323Z,25.34
2022-11-17T08:49:15.336Z,25.25
2022-11-17T08:49:30.328Z,25.27
2022-11-17T08:49:45.313Z,25.29
2022-11-17T08:50:00.348Z,25.32
2022-11-17T08:50:15.332Z,25.34
2022-11-17T08:50:30.317Z,25.37
2022-11-17T08:50:46.016Z,25.37
2022-11-17T08:51:00.349Z,25.37
2022-11-17T08:51:15.345Z,25.30
2022-11-17T08:51:30.323Z,25.32
2022-11-17T08:51:45.287Z,25.36
2022-11-17T08:52:00.344Z,25.36
2022-11-17T08:52:15.316Z,25.33
2022-11-17T08:52:30.317Z,25.34
2022-11-17T08:52:45.318Z,25.39
